Time;durP1;ratioP1;P1;durP2;ratioP2;P2;SDS_P1;SDS_P2;PMS_P1;PMS_P2;Temp;Humidity;BMP_temperature;BMP_pressure;BME280_temperature;BME280_humidity;BME280_pressure;Samples;Min_cycle;Max_cycle;Signal;HPM_P1;HPM_P2
2021/04/15 00:01:42;;;;;;;6.00;5.50;;;;;;;;;;5054317;28;20183;-42
2021/04/15 00:04:08;;;;;;;5.13;4.70;;;;;;;;;;5065852;28;20179;-42
2021/04/15 00:06:33;;;;;;;5.47;4.97;;;;;;;;;;5060642;28;20608;-42
2021/04/15 00:09:00;;;;;;;6.80;4.90;;;;;;;;;;5063112;28;20594;-42
2021/04/15 00:11:27;;;;;;;4.80;4.40;;;;;;;;;;5053503;28;20796;-43
2021/04/15 00:13:53;;;;;;;5.07;4.67;;;;;;;;;;5068531;28;20593;-43
2021/04/15 00:16:19;;;;;;;6.70;4.70;;;;;;;;;;5063987;28;20649;-42
2021/04/15 00:18:44;;;;;;;4.93;4.43;;;;;;;;;;5055704;28;20754;-43
2021/04/15 00:21:10;;;;;;;4.77;4.30;;;;;;;;;;5060362;28;20173;-43
2021/04/15 00:23:36;;;;;;;5.67;5.07;;;;;;;;;;5061429;28;20176;-42
2021/04/15 00:26:02;;;;;;;4.70;4.30;;;;;;;;;;5057869;28;21206;-42
2021/04/15 00:28:28;;;;;;;4.93;4.47;;;;;;;;;;5051725;28;20175;-43
2021/04/15 00:30:53;;;;;;;5.90;4.10;;;;;;;;;;5060796;28;20749;-42
2021/04/15 00:33:19;;;;;;;5.60;4.70;;;;;;;;;;5056422;28;20645;-42
2021/04/15 00:35:44;;;;;;;4.87;3.97;;;;;;;;;;5069364;28;20592;-43
2021/04/15 00:38:10;;;;;;;5.43;4.60;;;;;;;;;;5054735;28;20633;-43
2021/04/15 00:40:36;;;;;;;5.93;4.67;;;;;;;;;;5050819;28;20348;-43
2021/04/15 00:43:02;;;;;;;5.00;4.50;;;;;;;;;;5052749;28;20681;-43
2021/04/15 00:45:30;;;;;;;6.60;4.27;;;;;;;;;;5060406;28;21212;-43
2021/04/15 00:48:07;;;;;;;5.40;4.63;;;;;;;;;;5053899;28;20188;-42
2021/04/15 00:50:35;;;;;;;4.73;4.23;;;;;;;;;;5056652;28;20737;-41
2021/04/15 00:53:02;;;;;;;5.37;4.87;;;;;;;;;;5053081;28;20589;-41
2021/04/15 00:55:29;;;;;;;6.00;4.90;;;;;;;;;;5050820;28;20766;-42
2021/04/15 00:57:54;;;;;;;5.30;4.90;;;;;;;;;;5060114;28;20582;-42
2021/04/15 01:00:23;;;;;;;4.97;4.67;;;;;;;;;;5057036;28;20587;-41
2021/04/15 01:02:48;;;;;;;5.00;4.60;;;;;;;;;;5063455;28;20182;-41
2021/04/15 01:05:17;;;;;;;5.10;4.60;;;;;;;;;;5067771;28;20617;-42
2021/04/15 01:07:42;;;;;;;5.57;5.07;;;;;;;;;;5068974;28;20228;-41
2021/04/15 01:10:08;;;;;;;5.80;4.73;;;;;;;;;;5059215;28;21015;-41
2021/04/15 01:12:33;;;;;;;4.60;4.10;;;;;;;;;;5053440;28;20204;-42
2021/04/15 01:15:12;;;;;;;5.53;5.00;;;;;;;;;;5051835;28;20609;-42
2021/04/15 01:17:53;;;;;;;5.20;4.67;;;;;;;;;;5054152;28;20179;-42
2021/04/15 01:20:30;;;;;;;4.57;4.17;;;;;;;;;;5055874;28;20601;-41
2021/04/15 01:23:02;;;;;;;5.60;4.37;;;;;;;;;;5063805;28;20646;-41
2021/04/15 01:25:30;;;;;;;5.77;4.40;;;;;;;;;;5052393;28;20606;-42
2021/04/15 01:28:04;;;;;;;5.13;4.63;;;;;;;;;;5056935;28;20590;-42
2021/04/15 01:30:37;;;;;;;8.53;5.50;;;;;;;;;;5061941;28;20670;-42
2021/04/15 01:33:12;;;;;;;5.10;4.70;;;;;;;;;;5049638;28;20586;-42
2021/04/15 01:35:43;;;;;;;4.87;4.37;;;;;;;;;;5054740;28;20659;-41
2021/04/15 01:38:11;;;;;;;6.20;4.83;;;;;;;;;;5063703;28;20586;-42
2021/04/15 01:40:39;;;;;;;7.37;4.70;;;;;;;;;;5054330;28;21417;-42
2021/04/15 01:43:16;;;;;;;4.80;4.40;;;;;;;;;;5058159;28;20601;-42
2021/04/15 01:45:43;;;;;;;5.33;4.90;;;;;;;;;;5057863;28;20602;-42
2021/04/15 01:48:12;;;;;;;5.23;4.63;;;;;;;;;;5061166;28;20654;-42
2021/04/15 01:50:39;;;;;;;5.13;4.63;;;;;;;;;;5062463;28;20635;-42
2021/04/15 01:53:08;;;;;;;4.70;4.30;;;;;;;;;;5054405;28;20609;-42
2021/04/15 01:55:37;;;;;;;4.47;3.77;;;;;;;;;;5057619;28;21147;-42
2021/04/15 01:58:20;;;;;;;4.97;4.40;;;;;;;;;;5065827;28;20604;-42
2021/04/15 02:00:47;;;;;;;4.40;4.00;;;;;;;;;;5054021;28;20602;-43
2021/04/15 02:03:18;;;;;;;5.10;4.57;;;;;;;;;;5049346;28;20604;-43
2021/04/15 02:05:44;;;;;;;5.90;4.30;;;;;;;;;;5050219;28;20651;-42
2021/04/15 02:08:12;;;;;;;5.53;4.27;;;;;;;;;;5051956;28;20723;-42
2021/04/15 02:10:40;;;;;;;4.10;3.80;;;;;;;;;;5053712;28;20636;-43
2021/04/15 02:13:07;;;;;;;6.13;4.23;;;;;;;;;;5051532;28;20594;-42
2021/04/15 02:15:41;;;;;;;4.63;4.20;;;;;;;;;;5060140;28;20641;-42
2021/04/15 02:18:07;;;;;;;5.13;4.67;;;;;;;;;;5051715;28;20603;-42
2021/04/15 02:20:32;;;;;;;5.23;4.47;;;;;;;;;;5061300;28;20605;-42
2021/04/15 02:23:00;;;;;;;5.03;4.10;;;;;;;;;;5049639;28;20187;-42
2021/04/15 02:25:31;;;;;;;4.50;4.20;;;;;;;;;;5049050;28;20179;-42
2021/04/15 02:28:02;;;;;;;5.43;3.80;;;;;;;;;;5056777;28;21155;-43
2021/04/15 02:30:34;;;;;;;4.27;3.97;;;;;;;;;;5066406;28;21246;-43
2021/04/15 02:32:59;;;;;;;4.97;3.87;;;;;;;;;;5050196;28;20632;-42
2021/04/15 02:35:27;;;;;;;5.93;3.80;;;;;;;;;;5057796;28;20590;-42
2021/04/15 02:37:54;;;;;;;4.13;3.83;;;;;;;;;;5059304;28;20263;-42
2021/04/15 02:40:25;;;;;;;5.20;3.90;;;;;;;;;;5062005;28;20625;-42
2021/04/15 02:42:51;;;;;;;5.03;3.80;;;;;;;;;;5059434;28;20652;-42
2021/04/15 02:45:54;;;;;;;4.47;3.80;;;;;;;;;;5053202;28;20676;-42
2021/04/15 02:48:13;;;;;;;5.13;4.63;;;;;;;;;;5062019;28;20607;-42
2021/04/15 02:50:39;;;;;;;5.43;4.15;;;;;;;;;;5052115;28;20656;-42
2021/04/15 02:53:07;;;;;;;6.80;5.03;;;;;;;;;;5067249;28;20536;-42
2021/04/15 02:55:38;;;;;;;5.10;4.70;;;;;;;;;;5065545;28;20979;-42
2021/04/15 02:58:18;;;;;;;4.63;4.17;;;;;;;;;;5053815;28;20586;-42
2021/04/15 03:00:46;;;;;;;5.70;4.27;;;;;;;;;;5054308;28;20643;-42
2021/04/15 03:03:13;;;;;;;5.10;4.70;;;;;;;;;;5054686;28;20638;-42
2021/04/15 03:05:54;;;;;;;4.70;4.30;;;;;;;;;;5066294;28;20598;-42
2021/04/15 03:08:22;;;;;;;7.97;5.30;;;;;;;;;;5063879;28;20665;-42
2021/04/15 03:10:52;;;;;;;5.33;4.83;;;;;;;;;;5069237;28;20637;-43
2021/04/15 03:13:21;;;;;;;4.80;4.40;;;;;;;;;;5069002;28;20600;-42
2021/04/15 03:15:48;;;;;;;5.20;4.70;;;;;;;;;;5063166;28;20723;-42
2021/04/15 03:18:19;;;;;;;6.23;4.67;;;;;;;;;;5059301;28;20962;-43
2021/04/15 03:20:47;;;;;;;5.50;4.63;;;;;;;;;;5064925;28;20593;-42
2021/04/15 03:23:17;;;;;;;6.10;4.80;;;;;;;;;;5066330;28;20605;-43
2021/04/15 03:25:42;;;;;;;6.80;4.63;;;;;;;;;;5056608;28;20680;-42
2021/04/15 03:28:11;;;;;;;6.80;4.95;;;;;;;;;;5054298;28;21159;-42
2021/04/15 03:30:48;;;;;;;6.93;5.00;;;;;;;;;;5052342;28;20248;-42
2021/04/15 03:33:20;;;;;;;5.60;5.10;;;;;;;;;;5065466;28;20858;-43
2021/04/15 03:35:53;;;;;;;5.30;4.80;;;;;;;;;;5049149;28;20591;-43
2021/04/15 03:38:24;;;;;;;5.50;5.03;;;;;;;;;;5051963;28;20595;-42
2021/04/15 03:40:51;;;;;;;5.67;5.17;;;;;;;;;;5065143;28;20647;-43
2021/04/15 03:43:25;;;;;;;4.80;4.50;;;;;;;;;;5062820;28;20625;-42
2021/04/15 03:45:53;;;;;;;5.63;5.10;;;;;;;;;;5049624;28;20607;-42
2021/04/15 03:48:21;;;;;;;8.37;4.80;;;;;;;;;;5056823;28;20603;-42
2021/04/15 03:50:49;;;;;;;5.50;4.90;;;;;;;;;;5060729;28;20660;-42
2021/04/15 03:53:16;;;;;;;6.50;5.83;;;;;;;;;;5050551;28;20600;-42
2021/04/15 03:55:43;;;;;;;6.50;5.80;;;;;;;;;;5057492;28;21196;-43
2021/04/15 03:58:17;;;;;;;5.57;5.07;;;;;;;;;;5058238;28;20638;-43
2021/04/15 04:00:45;;;;;;;7.23;5.93;;;;;;;;;;5054544;28;21021;-42
2021/04/15 04:03:13;;;;;;;4.60;4.30;;;;;;;;;;5053392;28;20606;-43
2021/04/15 04:05:44;;;;;;;6.80;5.13;;;;;;;;;;5051076;28;20640;-43
2021/04/15 04:08:13;;;;;;;5.00;4.60;;;;;;;;;;5057917;28;20645;-43
2021/04/15 04:10:40;;;;;;;5.50;4.20;;;;;;;;;;5050401;28;20597;-43
2021/04/15 04:13:23;;;;;;;5.23;4.50;;;;;;;;;;5059071;28;21123;-43
2021/04/15 04:15:50;;;;;;;6.30;4.07;;;;;;;;;;5050424;28;20601;-43
2021/04/15 04:18:22;;;;;;;4.57;4.13;;;;;;;;;;5055356;28;20637;-41
2021/04/15 04:20:47;;;;;;;4.13;3.83;;;;;;;;;;5058328;28;20711;-42
2021/04/15 04:23:24;;;;;;;5.97;4.37;;;;;;;;;;5053062;28;20687;-42
2021/04/15 04:25:58;;;;;;;4.40;4.10;;;;;;;;;;5053357;28;20194;-42
2021/04/15 04:28:29;;;;;;;5.50;3.63;;;;;;;;;;5056919;28;20613;-42
2021/04/15 04:30:55;;;;;;;4.60;4.20;;;;;;;;;;5053149;28;21575;-42
2021/04/15 04:33:24;;;;;;;7.80;7.10;;;;;;;;;;5056586;28;20598;-42
2021/04/15 04:35:50;;;;;;;4.23;3.83;;;;;;;;;;5063679;28;20590;-42
2021/04/15 04:38:17;;;;;;;4.40;4.00;;;;;;;;;;5056825;28;20606;-42
2021/04/15 04:40:44;;;;;;;4.60;4.20;;;;;;;;;;5054792;28;20637;-42
2021/04/15 04:43:25;;;;;;;4.30;3.90;;;;;;;;;;5063392;28;20605;-42
2021/04/15 04:45:51;;;;;;;5.80;3.73;;;;;;;;;;5048329;28;20614;-42
2021/04/15 04:48:22;;;;;;;6.70;4.37;;;;;;;;;;5048206;28;20705;-41
2021/04/15 04:50:53;;;;;;;6.63;5.50;;;;;;;;;;5052923;28;20690;-42
2021/04/15 04:53:25;;;;;;;8.53;4.80;;;;;;;;;;5059189;28;20656;-42
2021/04/15 04:55:50;;;;;;;5.47;4.67;;;;;;;;;;5049034;28;20599;-42
2021/04/15 04:58:17;;;;;;;4.95;4.30;;;;;;;;;;5056992;28;20641;-41
2021/04/15 05:00:47;;;;;;;6.90;4.00;;;;;;;;;;5059276;28;20183;-41
2021/04/15 05:03:17;;;;;;;5.10;4.60;;;;;;;;;;5058842;28;20582;-42
2021/04/15 05:05:42;;;;;;;8.00;4.33;;;;;;;;;;5057344;28;20633;-43
2021/04/15 05:08:12;;;;;;;5.75;5.15;;;;;;;;;;5061771;28;20656;-43
2021/04/15 05:10:38;;;;;;;5.73;4.27;;;;;;;;;;5051383;28;20237;-44
2021/04/15 05:13:05;;;;;;;5.50;5.00;;;;;;;;;;5050143;28;20594;-42
2021/04/15 05:15:31;;;;;;;6.10;4.13;;;;;;;;;;5052221;28;20510;-43
2021/04/15 05:17:56;;;;;;;4.17;3.87;;;;;;;;;;5063523;28;20589;-43
2021/04/15 05:20:24;;;;;;;4.60;4.20;;;;;;;;;;5060562;28;20650;-43
2021/04/15 05:23:05;;;;;;;4.80;4.37;;;;;;;;;;5063580;28;20159;-43
2021/04/15 05:25:34;;;;;;;5.50;4.30;;;;;;;;;;5057483;28;20590;-43
2021/04/15 05:28:00;;;;;;;6.20;4.93;;;;;;;;;;5063844;28;21161;-42
2021/04/15 05:30:31;;;;;;;8.07;5.23;;;;;;;;;;5060289;28;20629;-42
2021/04/15 05:32:58;;;;;;;5.73;4.90;;;;;;;;;;5063340;28;20298;-42
2021/04/15 05:35:26;;;;;;;5.97;5.47;;;;;;;;;;5049170;28;20582;-43
2021/04/15 05:37:54;;;;;;;5.20;4.80;;;;;;;;;;5049112;28;20596;-43
2021/04/15 05:40:19;;;;;;;5.43;4.87;;;;;;;;;;5049265;28;20640;-43
2021/04/15 05:42:51;;;;;;;5.57;5.07;;;;;;;;;;5049067;28;20598;-43
2021/04/15 05:45:22;;;;;;;6.20;4.90;;;;;;;;;;5048846;28;20194;-43
2021/04/15 05:47:47;;;;;;;8.47;5.53;;;;;;;;;;5048985;28;21197;-43
2021/04/15 05:50:21;;;;;;;6.10;5.10;;;;;;;;;;5065556;28;21159;-42
2021/04/15 05:52:51;;;;;;;5.87;5.33;;;;;;;;;;5064168;28;20281;-42
2021/04/15 05:55:18;;;;;;;7.57;5.93;;;;;;;;;;5049097;28;21466;-43
2021/04/15 05:57:46;;;;;;;5.73;5.20;;;;;;;;;;5052539;28;20594;-43
2021/04/15 06:00:13;;;;;;;7.47;5.67;;;;;;;;;;5052478;28;21182;-42
2021/04/15 06:03:05;;;;;;;6.23;5.63;;;;;;;;;;5058006;28;20606;-43
2021/04/15 06:05:33;;;;;;;7.90;5.53;;;;;;;;;;5058087;28;20633;-42
2021/04/15 06:08:01;;;;;;;6.30;5.70;;;;;;;;;;5062635;28;20658;-43
2021/04/15 06:10:27;;;;;;;8.03;5.97;;;;;;;;;;5047265;28;20614;-42
2021/04/15 06:13:01;;;;;;;7.10;6.40;;;;;;;;;;5049355;28;20603;-42
2021/04/15 06:15:32;;;;;;;8.50;6.47;;;;;;;;;;5063434;28;20605;-42
2021/04/15 06:18:09;;;;;;;7.47;6.43;;;;;;;;;;5052819;28;20657;-43
2021/04/15 06:20:36;;;;;;;6.63;6.00;;;;;;;;;;5049000;28;20594;-43
2021/04/15 06:23:04;;;;;;;8.80;6.67;;;;;;;;;;5051914;28;20635;-42
2021/04/15 06:25:31;;;;;;;8.30;7.00;;;;;;;;;;5050216;28;20644;-42
2021/04/15 06:27:58;;;;;;;6.90;6.30;;;;;;;;;;5046305;28;20608;-42
2021/04/15 06:30:23;;;;;;;8.03;7.23;;;;;;;;;;5061264;28;20977;-42
2021/04/15 06:32:54;;;;;;;8.63;7.83;;;;;;;;;;5058790;28;20648;-42
2021/04/15 06:35:24;;;;;;;7.87;6.87;;;;;;;;;;5045612;28;20225;-42
2021/04/15 06:38:04;;;;;;;10.63;7.03;;;;;;;;;;5052721;28;20597;-42
2021/04/15 06:40:35;;;;;;;7.97;7.17;;;;;;;;;;5061180;28;20619;-42
2021/04/15 06:43:20;;;;;;;6.67;6.00;;;;;;;;;;5051039;28;20608;-42
2021/04/15 06:45:48;;;;;;;9.07;6.83;;;;;;;;;;5050746;28;20599;-42
2021/04/15 06:48:13;;;;;;;8.27;6.13;;;;;;;;;;5052000;28;20596;-42
2021/04/15 06:50:51;;;;;;;8.52;6.38;;;;;;;;;;5052940;28;20590;-43
2021/04/15 06:53:16;;;;;;;7.10;6.17;;;;;;;;;;5054772;28;20255;-42
2021/04/15 06:55:56;;;;;;;7.63;6.70;;;;;;;;;;5051671;28;20701;-43
2021/04/15 06:58:36;;;;;;;7.57;6.80;;;;;;;;;;5068357;28;20267;-43
2021/04/15 07:01:09;;;;;;;8.13;7.10;;;;;;;;;;5054851;28;21140;-43
2021/04/15 07:03:39;;;;;;;9.17;6.53;;;;;;;;;;5060643;28;20688;-43
2021/04/15 07:06:19;;;;;;;7.40;6.80;;;;;;;;;;5055608;28;20602;-44
2021/04/15 07:08:50;;;;;;;8.07;7.30;;;;;;;;;;5065493;28;20629;-43
2021/04/15 07:11:33;;;;;;;9.03;7.10;;;;;;;;;;5066339;28;20643;-42
2021/04/15 07:14:14;;;;;;;10.23;6.23;;;;;;;;;;5068118;28;20557;-43
2021/04/15 07:16:43;;;;;;;7.00;6.30;;;;;;;;;;5068095;28;20951;-43
2021/04/15 07:19:08;;;;;;;7.57;6.47;;;;;;;;;;5057016;28;21461;-42
2021/04/15 07:21:52;;;;;;;7.28;6.20;;;;;;;;;;5047702;28;21250;-43
2021/04/15 07:24:28;;;;;;;9.43;7.73;;;;;;;;;;5047823;28;20228;-43
2021/04/15 07:27:05;;;;;;;6.73;6.03;;;;;;;;;;5047652;28;20591;-43
2021/04/15 07:29:39;;;;;;;6.80;6.20;;;;;;;;;;5055162;28;20605;-42
2021/04/15 07:32:23;;;;;;;7.23;6.53;;;;;;;;;;5067521;28;21065;-43
2021/04/15 07:34:54;;;;;;;7.27;6.53;;;;;;;;;;5067427;28;20759;-43
2021/04/15 07:37:37;;;;;;;5.87;5.30;;;;;;;;;;5067742;28;20583;-43
2021/04/15 07:40:21;;;;;;;5.60;5.10;;;;;;;;;;5047730;28;20990;-43
2021/04/15 07:43:25;;;;;;;5.63;5.13;;;;;;;;;;5047323;28;20580;-43
2021/04/15 07:45:50;;;;;;;6.93;6.33;;;;;;;;;;5044369;28;20580;-43
2021/04/15 07:48:18;;;;;;;7.97;6.85;;;;;;;;;;5040738;28;20604;-43
2021/04/15 07:50:56;;;;;;;5.77;5.37;;;;;;;;;;5046174;28;20183;-43
2021/04/15 07:53:24;;;;;;;6.60;5.90;;;;;;;;;;5049386;28;20824;-43
2021/04/15 07:55:50;;;;;;;9.53;5.37;;;;;;;;;;5051257;28;20619;-43
2021/04/15 07:58:33;;;;;;;5.90;5.40;;;;;;;;;;5051018;28;20606;-43
2021/04/15 08:01:01;;;;;;;5.30;4.80;;;;;;;;;;5053103;28;20179;-43
2021/04/15 08:03:45;;;;;;;5.90;5.40;;;;;;;;;;5071235;28;20570;-43
2021/04/15 08:06:35;;;;;;;8.40;6.40;;;;;;;;;;5070379;28;21055;-43
2021/04/15 08:09:17;;;;;;;5.33;4.83;;;;;;;;;;5057552;28;21197;-43
2021/04/15 08:11:42;;;;;;;8.40;6.03;;;;;;;;;;5051194;28;20728;-42
2021/04/15 08:14:07;;;;;;;6.18;5.22;;;;;;;;;;5050876;28;20588;-42
2021/04/15 08:16:39;;;;;;;5.05;4.40;;;;;;;;;;5050677;28;20532;-42
2021/04/15 08:19:23;;;;;;;6.17;4.90;;;;;;;;;;5059398;28;20180;-42
2021/04/15 08:21:48;;;;;;;5.50;5.00;;;;;;;;;;5070695;28;20590;-41
2021/04/15 08:24:32;;;;;;;5.28;4.78;;;;;;;;;;5070166;28;20749;-43
2021/04/15 08:27:15;;;;;;;6.43;4.40;;;;;;;;;;5070626;28;20172;-41
2021/04/15 08:29:55;;;;;;;4.90;4.50;;;;;;;;;;5071058;28;20606;-42
2021/04/15 08:32:29;;;;;;;6.90;4.40;;;;;;;;;;5068560;28;21278;-45
2021/04/15 08:35:15;;;;;;;4.27;3.90;;;;;;;;;;5070337;28;20563;-42
2021/04/15 08:37:52;;;;;;;4.40;4.00;;;;;;;;;;5068891;28;21147;-42
2021/04/15 08:40:29;;;;;;;4.70;4.30;;;;;;;;;;5070312;28;20616;-42
2021/04/15 08:43:13;;;;;;;4.83;4.43;;;;;;;;;;5068558;28;20597;-42
2021/04/15 08:45:58;;;;;;;4.83;4.30;;;;;;;;;;5070256;28;20623;-43
2021/04/15 08:48:50;;;;;;;4.93;4.53;;;;;;;;;;5070800;28;21158;-43
2021/04/15 08:51:33;;;;;;;6.17;5.67;;;;;;;;;;5069216;28;20650;-43
2021/04/15 08:54:01;;;;;;;4.77;4.37;;;;;;;;;;5056976;28;21183;-43
2021/04/15 08:56:31;;;;;;;5.67;3.93;;;;;;;;;;5050173;28;20631;-44
2021/04/15 08:59:21;;;;;;;5.93;4.00;;;;;;;;;;5049886;28;20638;-44
2021/04/15 09:01:50;;;;;;;4.77;4.43;;;;;;;;;;5053442;28;20606;-42
2021/04/15 09:04:22;;;;;;;5.17;4.77;;;;;;;;;;5068387;28;20656;-42
2021/04/15 09:07:06;;;;;;;4.77;4.37;;;;;;;;;;5049441;28;20729;-42
2021/04/15 09:09:31;;;;;;;6.00;3.70;;;;;;;;;;5049697;28;20614;-42
2021/04/15 09:12:16;;;;;;;3.95;3.65;;;;;;;;;;5050064;28;20994;-42
2021/04/15 09:14:47;;;;;;;3.70;3.43;;;;;;;;;;5049877;28;20175;-42
2021/04/15 09:17:12;;;;;;;4.43;4.10;;;;;;;;;;5049424;28;20597;-42
2021/04/15 09:19:40;;;;;;;4.45;4.05;;;;;;;;;;5049911;28;20650;-42
2021/04/15 09:22:20;;;;;;;3.90;3.40;;;;;;;;;;5049696;28;20176;-43
2021/04/15 09:25:08;;;;;;;3.87;3.07;;;;;;;;;;5049623;28;21212;-43
2021/04/15 09:27:41;;;;;;;3.20;3.00;;;;;;;;;;5049880;28;20611;-43
2021/04/15 09:30:19;;;;;;;4.60;3.57;;;;;;;;;;5049748;28;21194;-43
2021/04/15 09:32:56;;;;;;;3.60;3.30;;;;;;;;;;5049154;28;21246;-43
2021/04/15 09:35:39;;;;;;;5.33;3.37;;;;;;;;;;5068874;28;20614;-43
2021/04/15 09:38:23;;;;;;;5.30;3.67;;;;;;;;;;5068582;28;20879;-43
2021/04/15 09:40:48;;;;;;;3.90;3.60;;;;;;;;;;5069408;28;20602;-42
2021/04/15 09:43:18;;;;;;;4.53;4.03;;;;;;;;;;5068753;28;20571;-43
2021/04/15 09:45:46;;;;;;;4.20;3.90;;;;;;;;;;5067377;28;20168;-42
2021/04/15 09:48:31;;;;;;;3.70;3.40;;;;;;;;;;5068861;28;21053;-43
2021/04/15 09:50:59;;;;;;;4.00;3.60;;;;;;;;;;5068981;28;20660;-43
2021/04/15 09:53:35;;;;;;;4.30;4.00;;;;;;;;;;5061029;28;20691;-43
2021/04/15 09:56:18;;;;;;;3.53;3.23;;;;;;;;;;5049214;28;20593;-43
2021/04/15 09:59:00;;;;;;;4.30;3.90;;;;;;;;;;5048814;28;20573;-43
2021/04/15 10:01:28;;;;;;;4.80;4.40;;;;;;;;;;5049188;28;20684;-42
2021/04/15 10:03:56;;;;;;;4.90;4.50;;;;;;;;;;5057594;28;20605;-43
2021/04/15 10:06:27;;;;;;;6.00;4.77;;;;;;;;;;5068370;28;20993;-43
2021/04/15 10:08:55;;;;;;;4.57;4.27;;;;;;;;;;5068326;28;20694;-43
2021/04/15 10:11:26;;;;;;;5.93;5.50;;;;;;;;;;5068614;28;21061;-43
2021/04/15 10:13:51;;;;;;;5.03;4.67;;;;;;;;;;5068431;28;21150;-42
2021/04/15 10:16:21;;;;;;;5.20;4.80;;;;;;;;;;5066699;28;21154;-43
2021/04/15 10:18:46;;;;;;;4.43;3.90;;;;;;;;;;5068617;28;20199;-43
2021/04/15 10:21:17;;;;;;;5.00;4.50;;;;;;;;;;5068498;28;20600;-43
2021/04/15 10:23:42;;;;;;;5.13;4.70;;;;;;;;;;5067988;28;20506;-43
2021/04/15 10:26:28;;;;;;;4.82;4.43;;;;;;;;;;5068730;28;21134;-43
2021/04/15 10:29:13;;;;;;;3.63;3.43;;;;;;;;;;5066317;28;20174;-42
2021/04/15 10:31:43;;;;;;;3.00;2.77;;;;;;;;;;5067450;28;20638;-42
2021/04/15 10:34:27;;;;;;;2.67;2.47;;;;;;;;;;5067331;28;20863;-42
2021/04/15 10:37:08;;;;;;;2.23;2.03;;;;;;;;;;5067741;28;20584;-42
2021/04/15 10:39:53;;;;;;;5.70;3.47;;;;;;;;;;5050261;28;20608;-42
2021/04/15 10:42:36;;;;;;;2.13;2.03;;;;;;;;;;5047696;28;20656;-42
2021/04/15 10:45:28;;;;;;;1.93;1.80;;;;;;;;;;5047422;28;20681;-42
2021/04/15 10:48:00;;;;;;;2.40;2.20;;;;;;;;;;5047233;28;20659;-42
2021/04/15 10:50:32;;;;;;;2.47;2.27;;;;;;;;;;5067445;28;20601;-41
2021/04/15 10:53:04;;;;;;;2.17;1.97;;;;;;;;;;5066884;28;20645;-42
2021/04/15 10:55:32;;;;;;;3.20;2.57;;;;;;;;;;5067605;28;21129;-42
2021/04/15 10:58:17;;;;;;;2.20;2.03;;;;;;;;;;5067569;28;20573;-42
2021/04/15 11:00:42;;;;;;;3.20;1.87;;;;;;;;;;5065858;28;20613;-42
2021/04/15 11:03:16;;;;;;;2.22;1.98;;;;;;;;;;5067060;28;20589;-42
2021/04/15 11:05:45;;;;;;;6.13;2.63;;;;;;;;;;5067790;28;20174;-42
2021/04/15 11:08:18;;;;;;;3.60;2.67;;;;;;;;;;5060769;28;20675;-42
2021/04/15 11:10:44;;;;;;;2.20;2.10;;;;;;;;;;5066240;28;20604;-42
2021/04/15 11:13:09;;;;;;;2.40;2.20;;;;;;;;;;5066980;28;20604;-43
2021/04/15 11:15:42;;;;;;;3.08;2.83;;;;;;;;;;5067510;28;20182;-43
2021/04/15 11:18:09;;;;;;;3.27;2.50;;;;;;;;;;5067345;28;20256;-43
2021/04/15 11:20:35;;;;;;;3.13;2.80;;;;;;;;;;5052071;28;20608;-43
2021/04/15 11:23:03;;;;;;;2.87;2.63;;;;;;;;;;5046645;28;20613;-43
2021/04/15 11:25:36;;;;;;;2.73;2.53;;;;;;;;;;5046976;28;20597;-43
2021/04/15 11:28:03;;;;;;;3.77;2.73;;;;;;;;;;5048321;28;20634;-43
2021/04/15 11:30:28;;;;;;;3.13;2.70;;;;;;;;;;5051541;28;20579;-42
2021/04/15 11:32:53;;;;;;;3.63;3.33;;;;;;;;;;5050655;28;20655;-42
2021/04/15 11:35:20;;;;;;;3.30;2.50;;;;;;;;;;5050566;28;20228;-43
2021/04/15 11:37:46;;;;;;;3.03;2.80;;;;;;;;;;5051429;28;20198;-43
2021/04/15 11:40:30;;;;;;;3.00;2.80;;;;;;;;;;5050625;28;20577;-43
2021/04/15 11:42:55;;;;;;;2.33;2.23;;;;;;;;;;5050617;28;20572;-41
2021/04/15 11:45:31;;;;;;;2.63;2.40;;;;;;;;;;5050957;28;21150;-41
2021/04/15 11:48:10;;;;;;;3.33;2.30;;;;;;;;;;5055436;28;20255;-40
2021/04/15 11:50:35;;;;;;;2.50;2.30;;;;;;;;;;5070380;28;21074;-42
2021/04/15 11:53:20;;;;;;;2.07;1.90;;;;;;;;;;5069772;28;20738;-42
2021/04/15 11:55:45;;;;;;;1.90;1.80;;;;;;;;;;5070803;28;20315;-42
2021/04/15 11:58:28;;;;;;;1.85;1.70;;;;;;;;;;5067645;28;20614;-42
2021/04/15 12:00:57;;;;;;;2.40;2.30;;;;;;;;;;5059792;28;20174;-41
2021/04/15 12:03:23;;;;;;;2.37;2.20;;;;;;;;;;5070452;28;20594;-41
2021/04/15 12:05:49;;;;;;;2.57;2.43;;;;;;;;;;5070357;28;20557;-40
2021/04/15 12:08:34;;;;;;;2.30;2.20;;;;;;;;;;5053601;28;20817;-41
2021/04/15 12:11:05;;;;;;;4.43;2.53;;;;;;;;;;5050649;28;20205;-41
2021/04/15 12:13:36;;;;;;;2.57;2.37;;;;;;;;;;5050188;28;20623;-41
2021/04/15 12:16:01;;;;;;;2.20;2.00;;;;;;;;;;5050155;28;20583;-42
2021/04/15 12:18:34;;;;;;;2.90;2.70;;;;;;;;;;5062420;28;20614;-41
2021/04/15 12:20:59;;;;;;;2.40;2.30;;;;;;;;;;5069828;28;20194;-42
2021/04/15 12:23:45;;;;;;;2.13;2.03;;;;;;;;;;5062378;28;20889;-42
2021/04/15 12:26:16;;;;;;;2.00;1.90;;;;;;;;;;5050174;28;20642;-42
2021/04/15 12:28:56;;;;;;;2.50;2.33;;;;;;;;;;5050173;28;20581;-41
2021/04/15 12:31:24;;;;;;;2.83;2.63;;;;;;;;;;5049337;28;20641;-41
2021/04/15 12:34:22;;;;;;;2.60;2.40;;;;;;;;;;5049736;28;20698;-42
2021/04/15 12:36:53;;;;;;;3.43;3.13;;;;;;;;;;5058865;28;20603;-41
2021/04/15 12:39:20;;;;;;;3.83;3.10;;;;;;;;;;5049423;28;21213;-42
2021/04/15 12:41:46;;;;;;;3.43;3.10;;;;;;;;;;5050162;28;20589;-42
2021/04/15 12:44:15;;;;;;;3.70;2.83;;;;;;;;;;5049793;28;21170;-42
2021/04/15 12:46:42;;;;;;;4.27;3.40;;;;;;;;;;5049665;28;20174;-41
2021/04/15 12:49:08;;;;;;;6.70;3.10;;;;;;;;;;5049662;28;20584;-41
2021/04/15 12:51:36;;;;;;;3.90;3.00;;;;;;;;;;5049798;28;20778;-42
2021/04/15 12:54:04;;;;;;;2.97;2.77;;;;;;;;;;5049444;28;20732;-42
2021/04/15 12:56:31;;;;;;;3.20;2.90;;;;;;;;;;5049699;28;20586;-42
2021/04/15 12:58:57;;;;;;;3.30;3.07;;;;;;;;;;5053184;28;20579;-42
2021/04/15 13:01:22;;;;;;;3.70;3.40;;;;;;;;;;5070034;28;20582;-42
2021/04/15 13:03:47;;;;;;;3.53;3.33;;;;;;;;;;5067559;28;20185;-42
2021/04/15 13:06:13;;;;;;;3.43;3.23;;;;;;;;;;5069098;28;20602;-42
2021/04/15 13:08:39;;;;;;;5.00;3.30;;;;;;;;;;5069245;28;20227;-42
2021/04/15 13:11:07;;;;;;;3.37;3.07;;;;;;;;;;5069146;28;20195;-42
2021/04/15 13:13:37;;;;;;;3.20;2.90;;;;;;;;;;5069172;28;20950;-42
2021/04/15 13:16:03;;;;;;;2.80;2.60;;;;;;;;;;5067316;28;21178;-41
2021/04/15 13:18:37;;;;;;;2.93;2.73;;;;;;;;;;5069635;28;20596;-42
2021/04/15 13:21:04;;;;;;;3.30;3.00;;;;;;;;;;5069185;28;21120;-41
2021/04/15 13:23:34;;;;;;;4.80;3.30;;;;;;;;;;5068827;28;20644;-42
2021/04/15 13:25:59;;;;;;;3.10;2.90;;;;;;;;;;5069194;28;20589;-42
2021/04/15 13:28:26;;;;;;;3.50;3.20;;;;;;;;;;5067296;28;20620;-42
2021/04/15 13:30:55;;;;;;;3.97;3.67;;;;;;;;;;5069063;28;20210;-42
2021/04/15 13:33:20;;;;;;;3.97;3.40;;;;;;;;;;5067748;28;20680;-42
2021/04/15 13:35:47;;;;;;;3.80;3.50;;;;;;;;;;5057091;28;20917;-42
2021/04/15 13:38:34;;;;;;;3.20;3.00;;;;;;;;;;5046162;28;20182;-43
2021/04/15 13:41:04;;;;;;;3.83;3.53;;;;;;;;;;5054371;28;20714;-42
2021/04/15 13:43:32;;;;;;;4.33;3.47;;;;;;;;;;5052461;28;20589;-42
2021/04/15 13:46:17;;;;;;;3.40;3.20;;;;;;;;;;5050466;28;21061;-43
2021/04/15 13:48:44;;;;;;;4.17;3.80;;;;;;;;;;5050881;28;20629;-43
2021/04/15 13:51:15;;;;;;;4.13;3.87;;;;;;;;;;5048397;28;21131;-43
2021/04/15 13:53:45;;;;;;;4.33;4.13;;;;;;;;;;5053078;28;20609;-43
2021/04/15 13:56:11;;;;;;;5.17;4.77;;;;;;;;;;5049898;28;20602;-43
2021/04/15 13:58:37;;;;;;;4.77;4.47;;;;;;;;;;5051524;28;20606;-43
2021/04/15 14:01:22;;;;;;;5.93;5.53;;;;;;;;;;5052256;28;20183;-43
2021/04/15 14:03:47;;;;;;;6.50;5.93;;;;;;;;;;5048520;28;20615;-44
2021/04/15 14:06:20;;;;;;;6.40;5.93;;;;;;;;;;5044517;28;20678;-42
2021/04/15 14:09:02;;;;;;;8.67;7.97;;;;;;;;;;5043594;28;20550;-48
2021/04/15 14:11:42;;;;;;;8.27;7.57;;;;;;;;;;5051318;28;21215;-43
2021/04/15 14:14:18;;;;;;;8.17;7.57;;;;;;;;;;5049918;28;20588;-41
2021/04/15 14:16:43;;;;;;;7.10;6.60;;;;;;;;;;5045373;28;20598;-43
2021/04/15 14:19:15;;;;;;;6.70;6.17;;;;;;;;;;5046917;28;20668;-41
2021/04/15 14:21:42;;;;;;;5.63;5.20;;;;;;;;;;5057698;28;20188;-42
2021/04/15 14:24:13;;;;;;;5.50;4.90;;;;;;;;;;5066714;28;20609;-42
2021/04/15 14:26:41;;;;;;;5.30;5.00;;;;;;;;;;5067976;28;20580;-42
2021/04/15 14:29:11;;;;;;;5.30;4.90;;;;;;;;;;5068008;28;21092;-43
2021/04/15 14:31:41;;;;;;;5.10;4.80;;;;;;;;;;5067775;28;20681;-43
2021/04/15 14:34:17;;;;;;;4.87;4.47;;;;;;;;;;5065821;28;20609;-41
2021/04/15 14:36:42;;;;;;;4.20;3.90;;;;;;;;;;5068054;28;20653;-42
2021/04/15 14:39:11;;;;;;;4.33;4.03;;;;;;;;;;5067458;28;20720;-42
2021/04/15 14:41:38;;;;;;;4.77;4.20;;;;;;;;;;5067671;28;20702;-41
2021/04/15 14:44:07;;;;;;;4.33;4.00;;;;;;;;;;5067345;28;20609;-42
2021/04/15 14:46:34;;;;;;;4.30;4.00;;;;;;;;;;5066237;28;21206;-41
2021/04/15 14:49:11;;;;;;;4.67;4.37;;;;;;;;;;5068112;28;20617;-42
2021/04/15 14:51:36;;;;;;;4.07;3.80;;;;;;;;;;5067866;28;20662;-42
2021/04/15 14:54:15;;;;;;;4.47;4.20;;;;;;;;;;5067633;28;21000;-42
2021/04/15 14:56:41;;;;;;;4.63;4.23;;;;;;;;;;5067939;28;20702;-42
2021/04/15 14:59:07;;;;;;;4.93;4.30;;;;;;;;;;5065418;28;20604;-42
2021/04/15 15:01:37;;;;;;;4.47;4.07;;;;;;;;;;5067558;28;20613;-41
2021/04/15 15:04:14;;;;;;;4.23;4.03;;;;;;;;;;5070951;28;20973;-42
2021/04/15 15:06:40;;;;;;;4.00;3.70;;;;;;;;;;5064335;28;20956;-42
2021/04/15 15:09:07;;;;;;;4.50;3.90;;;;;;;;;;5051096;28;20945;-43